sensor_id;sensor_type;location;lat;lon;timestamp;temperature;humidity
19359;DHT22;9815;52.334;20.890;2023-03-14T00:00:37;10.10;99.90
19359;DHT22;9815;52.334;20.890;2023-03-14T00:03:06;10.00;99.90
19359;DHT22;9815;52.334;20.890;2023-03-14T00:05:34;10.00;99.90
19359;DHT22;9815;52.334;20.890;2023-03-14T00:08:02;10.10;99.90
19359;DHT22;9815;52.334;20.890;2023-03-14T00:10:30;10.10;99.90
19359;DHT22;9815;52.334;20.890;2023-03-14T00:12:58;10.10;99.90
19359;DHT22;9815;52.334;20.890;2023-03-14T00:15:26;10.10;99.90
19359;DHT22;9815;52.334;20.890;2023-03-14T00:17:54;10.10;99.90
19359;DHT22;9815;52.334;20.890;2023-03-14T00:20:24;10.00;99.90
19359;DHT22;9815;52.334;20.890;2023-03-14T00:22:52;10.00;99.90
19359;DHT22;9815;52.334;20.890;2023-03-14T00:25:19;10.00;99.90
19359;DHT22;9815;52.334;20.890;2023-03-14T00:27:50;10.00;99.90
19359;DHT22;9815;52.334;20.890;2023-03-14T00:30:18;10.00;99.90
19359;DHT22;9815;52.334;20.890;2023-03-14T00:32:46;10.00;99.90
19359;DHT22;9815;52.334;20.890;2023-03-14T00:35:15;10.00;99.90
19359;DHT22;9815;52.334;20.890;2023-03-14T00:37:44;10.00;99.90
19359;DHT22;9815;52.334;20.890;2023-03-14T00:40:13;10.00;99.90
19359;DHT22;9815;52.334;20.890;2023-03-14T00:42:41;10.00;99.90
19359;DHT22;9815;52.334;20.890;2023-03-14T00:45:09;10.00;99.90
19359;DHT22;9815;52.334;20.890;2023-03-14T00:47:37;10.00;99.90
19359;DHT22;9815;52.334;20.890;2023-03-14T00:50:08;9.90;99.90
19359;DHT22;9815;52.334;20.890;2023-03-14T00:52:38;10.00;99.90
19359;DHT22;9815;52.334;20.890;2023-03-14T00:55:08;10.00;99.90
19359;DHT22;9815;52.334;20.890;2023-03-14T00:57:36;10.00;99.90
19359;DHT22;9815;52.334;20.890;2023-03-14T01:00:05;10.00;99.90
19359;DHT22;9815;52.334;20.890;2023-03-14T01:02:34;10.00;99.90
19359;DHT22;9815;52.334;20.890;2023-03-14T01:05:03;10.00;99.90
19359;DHT22;9815;52.334;20.890;2023-03-14T01:07:31;9.90;99.90
19359;DHT22;9815;52.334;20.890;2023-03-14T01:09:59;9.80;99.90
19359;DHT22;9815;52.334;20.890;2023-03-14T01:12:29;9.80;99.90
19359;DHT22;9815;52.334;20.890;2023-03-14T01:14:57;9.70;99.90
19359;DHT22;9815;52.334;20.890;2023-03-14T01:17:25;9.70;99.90
19359;DHT22;9815;52.334;20.890;2023-03-14T01:19:53;9.70;99.90
19359;DHT22;9815;52.334;20.890;2023-03-14T01:22:21;9.70;99.90
19359;DHT22;9815;52.334;20.890;2023-03-14T01:24:49;9.60;99.90
19359;DHT22;9815;52.334;20.890;2023-03-14T01:27:17;9.60;99.90
19359;DHT22;9815;52.334;20.890;2023-03-14T01:29:47;9.50;99.90
19359;DHT22;9815;52.334;20.890;2023-03-14T01:32:15;9.50;99.90
19359;DHT22;9815;52.334;20.890;2023-03-14T01:34:43;9.40;99.90
19359;DHT22;9815;52.334;20.890;2023-03-14T01:37:11;9.40;99.90
19359;DHT22;9815;52.334;20.890;2023-03-14T01:39:40;9.30;99.90
19359;DHT22;9815;52.334;20.890;2023-03-14T01:42:08;9.20;99.90
19359;DHT22;9815;52.334;20.890;2023-03-14T01:44:51;9.10;99.90
19359;DHT22;9815;52.334;20.890;2023-03-14T01:47:20;9.10;99.90
19359;DHT22;9815;52.334;20.890;2023-03-14T01:49:50;9.00;99.90
19359;DHT22;9815;52.334;20.890;2023-03-14T01:52:24;9.00;99.90
19359;DHT22;9815;52.334;20.890;2023-03-14T01:54:55;9.00;99.90
19359;DHT22;9815;52.334;20.890;2023-03-14T01:57:29;8.90;99.90
19359;DHT22;9815;52.334;20.890;2023-03-14T02:00:02;8.90;99.90
19359;DHT22;9815;52.334;20.890;2023-03-14T02:02:40;8.80;99.90
19359;DHT22;9815;52.334;20.890;2023-03-14T02:05:11;8.70;99.90
19359;DHT22;9815;52.334;20.890;2023-03-14T02:07:46;8.70;99.90
19359;DHT22;9815;52.334;20.890;2023-03-14T02:10:22;8.60;99.90
19359;DHT22;9815;52.334;20.890;2023-03-14T02:12:53;8.60;99.90
19359;DHT22;9815;52.334;20.890;2023-03-14T02:15:33;8.50;99.90
19359;DHT22;9815;52.334;20.890;2023-03-14T02:18:09;8.50;99.90
19359;DHT22;9815;52.334;20.890;2023-03-14T02:20:48;8.50;99.90
19359;DHT22;9815;52.334;20.890;2023-03-14T02:23:26;8.50;99.90
19359;DHT22;9815;52.334;20.890;2023-03-14T02:26:02;8.50;99.90
19359;DHT22;9815;52.334;20.890;2023-03-14T02:28:32;8.60;99.90
19359;DHT22;9815;52.334;20.890;2023-03-14T02:31:02;8.50;99.90
19359;DHT22;9815;52.334;20.890;2023-03-14T02:33:32;8.60;99.90
19359;DHT22;9815;52.334;20.890;2023-03-14T02:36:05;8.50;99.90
19359;DHT22;9815;52.334;20.890;2023-03-14T02:38:39;8.50;99.90
19359;DHT22;9815;52.334;20.890;2023-03-14T02:41:09;8.50;99.90
19359;DHT22;9815;52.334;20.890;2023-03-14T02:43:44;8.50;99.90
19359;DHT22;9815;52.334;20.890;2023-03-14T02:46:15;8.40;99.90
19359;DHT22;9815;52.334;20.890;2023-03-14T02:48:47;8.40;99.90
19359;DHT22;9815;52.334;20.890;2023-03-14T02:51:18;8.50;99.90
19359;DHT22;9815;52.334;20.890;2023-03-14T02:53:47;8.40;99.90
19359;DHT22;9815;52.334;20.890;2023-03-14T02:56:16;8.30;99.90
19359;DHT22;9815;52.334;20.890;2023-03-14T02:58:45;8.30;99.90
19359;DHT22;9815;52.334;20.890;2023-03-14T03:01:24;8.30;99.90
19359;DHT22;9815;52.334;20.890;2023-03-14T03:03:52;8.20;99.90
19359;DHT22;9815;52.334;20.890;2023-03-14T03:06:20;8.10;99.90
19359;DHT22;9815;52.334;20.890;2023-03-14T03:08:48;8.10;99.90
19359;DHT22;9815;52.334;20.890;2023-03-14T03:11:16;8.00;99.90
19359;DHT22;9815;52.334;20.890;2023-03-14T03:13:46;8.00;99.90
19359;DHT22;9815;52.334;20.890;2023-03-14T03:16:14;7.90;99.90
19359;DHT22;9815;52.334;20.890;2023-03-14T03:18:42;7.90;99.90
19359;DHT22;9815;52.334;20.890;2023-03-14T03:21:10;7.90;99.90
19359;DHT22;9815;52.334;20.890;2023-03-14T03:23:39;7.80;99.90
19359;DHT22;9815;52.334;20.890;2023-03-14T03:26:09;7.80;99.90
19359;DHT22;9815;52.334;20.890;2023-03-14T03:28:37;7.80;99.90
19359;DHT22;9815;52.334;20.890;2023-03-14T03:31:11;7.80;99.90
19359;DHT22;9815;52.334;20.890;2023-03-14T03:33:39;7.80;99.90
19359;DHT22;9815;52.334;20.890;2023-03-14T03:36:09;7.70;99.90
19359;DHT22;9815;52.334;20.890;2023-03-14T03:38:38;7.60;99.90
19359;DHT22;9815;52.334;20.890;2023-03-14T03:41:07;7.60;99.90
19359;DHT22;9815;52.334;20.890;2023-03-14T03:43:35;7.60;99.90
19359;DHT22;9815;52.334;20.890;2023-03-14T03:46:06;7.60;99.90
19359;DHT22;9815;52.334;20.890;2023-03-14T03:48:35;7.50;99.90
19359;DHT22;9815;52.334;20.890;2023-03-14T03:51:05;7.50;99.90
19359;DHT22;9815;52.334;20.890;2023-03-14T03:53:34;7.50;99.90
19359;DHT22;9815;52.334;20.890;2023-03-14T03:56:09;7.50;99.90
19359;DHT22;9815;52.334;20.890;2023-03-14T03:58:39;7.40;99.90
19359;DHT22;9815;52.334;20.890;2023-03-14T04:01:09;7.40;99.90
19359;DHT22;9815;52.334;20.890;2023-03-14T04:03:39;7.50;99.90
19359;DHT22;9815;52.334;20.890;2023-03-14T04:06:10;7.40;99.90
19359;DHT22;9815;52.334;20.890;2023-03-14T04:08:40;7.40;99.90
19359;DHT22;9815;52.334;20.890;2023-03-14T04:11:11;7.40;99.90
19359;DHT22;9815;52.334;20.890;2023-03-14T04:13:56;7.40;99.90
19359;DHT22;9815;52.334;20.890;2023-03-14T04:16:25;7.30;99.90
19359;DHT22;9815;52.334;20.890;2023-03-14T04:19:02;7.30;99.90
19359;DHT22;9815;52.334;20.890;2023-03-14T04:21:32;7.30;99.90
19359;DHT22;9815;52.334;20.890;2023-03-14T04:24:00;7.30;99.90
19359;DHT22;9815;52.334;20.890;2023-03-14T04:26:31;7.30;99.90
19359;DHT22;9815;52.334;20.890;2023-03-14T04:29:00;7.30;99.90
19359;DHT22;9815;52.334;20.890;2023-03-14T04:31:28;7.30;99.90
19359;DHT22;9815;52.334;20.890;2023-03-14T04:33:56;7.30;99.90
19359;DHT22;9815;52.334;20.890;2023-03-14T04:36:43;7.30;99.90
19359;DHT22;9815;52.334;20.890;2023-03-14T04:39:18;7.30;99.90
19359;DHT22;9815;52.334;20.890;2023-03-14T04:42:05;7.30;99.90
19359;DHT22;9815;52.334;20.890;2023-03-14T04:44:35;7.40;99.90
19359;DHT22;9815;52.334;20.890;2023-03-14T04:47:04;7.40;99.90
19359;DHT22;9815;52.334;20.890;2023-03-14T04:49:33;7.50;99.90
19359;DHT22;9815;52.334;20.890;2023-03-14T04:52:03;7.40;99.90
19359;DHT22;9815;52.334;20.890;2023-03-14T04:54:33;7.50;99.90
19359;DHT22;9815;52.334;20.890;2023-03-14T04:57:02;7.50;99.90
19359;DHT22;9815;52.334;20.890;2023-03-14T04:59:33;7.60;99.90
19359;DHT22;9815;52.334;20.890;2023-03-14T05:02:13;7.70;99.90
19359;DHT22;9815;52.334;20.890;2023-03-14T05:05:17;7.70;99.90
19359;DHT22;9815;52.334;20.890;2023-03-14T05:08:06;7.70;99.90
19359;DHT22;9815;52.334;20.890;2023-03-14T05:10:52;7.80;99.90
19359;DHT22;9815;52.334;20.890;2023-03-14T05:13:38;7.90;99.90
19359;DHT22;9815;52.334;20.890;2023-03-14T05:16:25;7.90;99.90
19359;DHT22;9815;52.334;20.890;2023-03-14T05:19:02;7.90;99.90
19359;DHT22;9815;52.334;20.890;2023-03-14T05:21:44;8.00;99.90
19359;DHT22;9815;52.334;20.890;2023-03-14T05:24:29;8.00;99.90
19359;DHT22;9815;52.334;20.890;2023-03-14T05:27:08;8.10;99.90
19359;DHT22;9815;52.334;20.890;2023-03-14T05:29:43;8.10;99.90
19359;DHT22;9815;52.334;20.890;2023-03-14T05:32:31;8.10;99.90
19359;DHT22;9815;52.334;20.890;2023-03-14T05:35:14;8.30;99.90
19359;DHT22;9815;52.334;20.890;2023-03-14T05:37:52;8.20;99.90
19359;DHT22;9815;52.334;20.890;2023-03-14T05:40:40;8.20;99.90
19359;DHT22;9815;52.334;20.890;2023-03-14T05:43:28;8.20;99.90
19359;DHT22;9815;52.334;20.890;2023-03-14T05:46:10;8.30;99.90
19359;DHT22;9815;52.334;20.890;2023-03-14T05:49:13;8.30;99.90
19359;DHT22;9815;52.334;20.890;2023-03-14T05:52:08;8.40;99.80
19359;DHT22;9815;52.334;20.890;2023-03-14T05:55:06;8.50;98.70
19359;DHT22;9815;52.334;20.890;2023-03-14T05:57:50;8.50;98.50
19359;DHT22;9815;52.334;20.890;2023-03-14T06:00:28;8.60;97.50
19359;DHT22;9815;52.334;20.890;2023-03-14T06:03:14;8.60;97.70
19359;DHT22;9815;52.334;20.890;2023-03-14T06:05:46;8.70;97.20
19359;DHT22;9815;52.334;20.890;2023-03-14T06:08:14;8.70;96.90
19359;DHT22;9815;52.334;20.890;2023-03-14T06:10:45;8.80;95.60
19359;DHT22;9815;52.334;20.890;2023-03-14T06:13:15;8.80;94.80
19359;DHT22;9815;52.334;20.890;2023-03-14T06:15:43;8.80;94.70
19359;DHT22;9815;52.334;20.890;2023-03-14T06:18:12;8.80;94.50
19359;DHT22;9815;52.334;20.890;2023-03-14T06:20:42;8.80;95.40
19359;DHT22;9815;52.334;20.890;2023-03-14T06:23:14;8.90;95.20
19359;DHT22;9815;52.334;20.890;2023-03-14T06:25:42;8.70;95.60
19359;DHT22;9815;52.334;20.890;2023-03-14T06:28:10;8.70;95.60
19359;DHT22;9815;52.334;20.890;2023-03-14T06:30:40;8.60;95.70
19359;DHT22;9815;52.334;20.890;2023-03-14T06:33:10;8.60;95.80
19359;DHT22;9815;52.334;20.890;2023-03-14T06:35:41;8.60;96.50
19359;DHT22;9815;52.334;20.890;2023-03-14T06:38:09;8.70;96.30
19359;DHT22;9815;52.334;20.890;2023-03-14T06:40:38;9.00;95.80
19359;DHT22;9815;52.334;20.890;2023-03-14T06:43:11;9.50;92.80
19359;DHT22;9815;52.334;20.890;2023-03-14T06:45:43;10.00;82.30
19359;DHT22;9815;52.334;20.890;2023-03-14T06:48:11;10.50;74.70
19359;DHT22;9815;52.334;20.890;2023-03-14T06:50:48;10.90;67.90
19359;DHT22;9815;52.334;20.890;2023-03-14T06:53:16;11.00;63.50
19359;DHT22;9815;52.334;20.890;2023-03-14T06:55:45;11.10;62.60
19359;DHT22;9815;52.334;20.890;2023-03-14T06:58:16;11.10;61.50
19359;DHT22;9815;52.334;20.890;2023-03-14T07:00:46;11.00;64.50
19359;DHT22;9815;52.334;20.890;2023-03-14T07:03:20;11.00;64.20
19359;DHT22;9815;52.334;20.890;2023-03-14T07:05:50;11.00;63.20
19359;DHT22;9815;52.334;20.890;2023-03-14T07:08:18;11.00;67.50
19359;DHT22;9815;52.334;20.890;2023-03-14T07:10:46;10.90;66.80
19359;DHT22;9815;52.334;20.890;2023-03-14T07:13:14;11.10;65.70
19359;DHT22;9815;52.334;20.890;2023-03-14T07:15:51;11.30;66.60
19359;DHT22;9815;52.334;20.890;2023-03-14T07:18:20;11.40;61.70
19359;DHT22;9815;52.334;20.890;2023-03-14T07:20:48;11.30;61.90
19359;DHT22;9815;52.334;20.890;2023-03-14T07:23:18;11.30;63.90
19359;DHT22;9815;52.334;20.890;2023-03-14T07:25:49;11.30;63.40
19359;DHT22;9815;52.334;20.890;2023-03-14T07:28:19;11.40;62.40
19359;DHT22;9815;52.334;20.890;2023-03-14T07:30:51;11.50;64.00
19359;DHT22;9815;52.334;20.890;2023-03-14T07:33:25;11.70;62.50
19359;DHT22;9815;52.334;20.890;2023-03-14T07:35:53;11.80;60.90
19359;DHT22;9815;52.334;20.890;2023-03-14T07:38:22;12.00;59.80
19359;DHT22;9815;52.334;20.890;2023-03-14T07:41:07;12.00;55.10
19359;DHT22;9815;52.334;20.890;2023-03-14T07:43:41;12.10;56.20
19359;DHT22;9815;52.334;20.890;2023-03-14T07:46:10;12.10;56.40
19359;DHT22;9815;52.334;20.890;2023-03-14T07:48:38;12.30;56.90
19359;DHT22;9815;52.334;20.890;2023-03-14T07:51:07;12.30;55.90
19359;DHT22;9815;52.334;20.890;2023-03-14T07:53:35;12.30;55.70
19359;DHT22;9815;52.334;20.890;2023-03-14T07:56:03;12.40;53.80
19359;DHT22;9815;52.334;20.890;2023-03-14T07:58:32;12.50;53.90
19359;DHT22;9815;52.334;20.890;2023-03-14T08:01:00;12.70;54.40
19359;DHT22;9815;52.334;20.890;2023-03-14T08:03:29;13.00;51.80
19359;DHT22;9815;52.334;20.890;2023-03-14T08:05:58;13.30;48.80
19359;DHT22;9815;52.334;20.890;2023-03-14T08:08:26;13.40;46.10
19359;DHT22;9815;52.334;20.890;2023-03-14T08:10:54;13.40;46.90
19359;DHT22;9815;52.334;20.890;2023-03-14T08:13:22;13.70;45.70
19359;DHT22;9815;52.334;20.890;2023-03-14T08:15:52;13.90;44.90
19359;DHT22;9815;52.334;20.890;2023-03-14T08:18:20;13.80;44.60
19359;DHT22;9815;52.334;20.890;2023-03-14T08:20:49;13.80;45.50
19359;DHT22;9815;52.334;20.890;2023-03-14T08:23:17;13.90;46.70
19359;DHT22;9815;52.334;20.890;2023-03-14T08:25:45;14.00;45.10
19359;DHT22;9815;52.334;20.890;2023-03-14T08:28:16;14.00;43.40
19359;DHT22;9815;52.334;20.890;2023-03-14T08:30:44;14.10;44.10
19359;DHT22;9815;52.334;20.890;2023-03-14T08:33:13;14.00;42.30
19359;DHT22;9815;52.334;20.890;2023-03-14T08:35:42;14.00;44.20
19359;DHT22;9815;52.334;20.890;2023-03-14T08:38:11;14.00;42.40
19359;DHT22;9815;52.334;20.890;2023-03-14T08:40:39;13.90;43.50
19359;DHT22;9815;52.334;20.890;2023-03-14T08:43:07;13.80;43.70
19359;DHT22;9815;52.334;20.890;2023-03-14T08:45:35;13.90;44.70
19359;DHT22;9815;52.334;20.890;2023-03-14T08:48:04;14.00;44.50
19359;DHT22;9815;52.334;20.890;2023-03-14T08:50:32;14.30;44.60
19359;DHT22;9815;52.334;20.890;2023-03-14T08:53:00;14.60;42.60
19359;DHT22;9815;52.334;20.890;2023-03-14T08:55:30;14.80;39.10
19359;DHT22;9815;52.334;20.890;2023-03-14T08:57:58;14.80;37.50
19359;DHT22;9815;52.334;20.890;2023-03-14T09:00:26;14.80;37.60
19359;DHT22;9815;52.334;20.890;2023-03-14T09:02:54;14.70;39.30
19359;DHT22;9815;52.334;20.890;2023-03-14T09:05:22;14.80;38.80
19359;DHT22;9815;52.334;20.890;2023-03-14T09:07:50;14.80;37.90
19359;DHT22;9815;52.334;20.890;2023-03-14T09:10:18;15.10;37.60
19359;DHT22;9815;52.334;20.890;2023-03-14T09:12:48;15.10;36.50
19359;DHT22;9815;52.334;20.890;2023-03-14T09:15:16;15.30;36.00
19359;DHT22;9815;52.334;20.890;2023-03-14T09:17:44;15.30;35.20
19359;DHT22;9815;52.334;20.890;2023-03-14T09:20:12;15.20;35.70
19359;DHT22;9815;52.334;20.890;2023-03-14T09:22:41;15.10;36.80
19359;DHT22;9815;52.334;20.890;2023-03-14T09:25:09;15.00;36.50
19359;DHT22;9815;52.334;20.890;2023-03-14T09:27:37;15.10;37.10
19359;DHT22;9815;52.334;20.890;2023-03-14T09:30:08;15.00;36.10
19359;DHT22;9815;52.334;20.890;2023-03-14T09:32:37;15.00;35.50
19359;DHT22;9815;52.334;20.890;2023-03-14T09:35:05;14.90;36.20
19359;DHT22;9815;52.334;20.890;2023-03-14T09:37:33;15.00;36.90
19359;DHT22;9815;52.334;20.890;2023-03-14T09:40:01;15.00;37.30
19359;DHT22;9815;52.334;20.890;2023-03-14T09:42:37;14.80;36.60
19359;DHT22;9815;52.334;20.890;2023-03-14T09:45:13;14.80;37.60
19359;DHT22;9815;52.334;20.890;2023-03-14T09:47:44;14.70;36.50
19359;DHT22;9815;52.334;20.890;2023-03-14T09:50:26;14.70;36.90
19359;DHT22;9815;52.334;20.890;2023-03-14T09:52:59;14.80;38.20
19359;DHT22;9815;52.334;20.890;2023-03-14T09:55:29;14.90;37.00
19359;DHT22;9815;52.334;20.890;2023-03-14T09:58:00;14.90;36.50
19359;DHT22;9815;52.334;20.890;2023-03-14T10:00:31;15.00;36.50
19359;DHT22;9815;52.334;20.890;2023-03-14T10:03:14;15.20;36.30
19359;DHT22;9815;52.334;20.890;2023-03-14T10:05:48;15.30;36.20
19359;DHT22;9815;52.334;20.890;2023-03-14T10:08:16;15.60;34.50
19359;DHT22;9815;52.334;20.890;2023-03-14T10:10:44;15.70;32.90
19359;DHT22;9815;52.334;20.890;2023-03-14T10:13:15;15.90;33.00
19359;DHT22;9815;52.334;20.890;2023-03-14T10:15:51;15.90;33.30
19359;DHT22;9815;52.334;20.890;2023-03-14T10:18:19;16.00;34.40
19359;DHT22;9815;52.334;20.890;2023-03-14T10:20:48;16.30;32.90
19359;DHT22;9815;52.334;20.890;2023-03-14T10:23:27;16.70;32.50
19359;DHT22;9815;52.334;20.890;2023-03-14T10:26:07;16.50;31.20
19359;DHT22;9815;52.334;20.890;2023-03-14T10:28:39;16.30;32.40
19359;DHT22;9815;52.334;20.890;2023-03-14T10:31:09;16.20;33.20
19359;DHT22;9815;52.334;20.890;2023-03-14T10:33:38;16.30;32.70
19359;DHT22;9815;52.334;20.890;2023-03-14T10:36:17;16.40;32.00
19359;DHT22;9815;52.334;20.890;2023-03-14T10:38:47;16.40;31.90
19359;DHT22;9815;52.334;20.890;2023-03-14T10:41:17;16.50;31.70
19359;DHT22;9815;52.334;20.890;2023-03-14T10:43:50;16.50;31.90
19359;DHT22;9815;52.334;20.890;2023-03-14T10:46:20;17.00;31.10
19359;DHT22;9815;52.334;20.890;2023-03-14T10:49:07;17.70;29.20
19359;DHT22;9815;52.334;20.890;2023-03-14T10:51:36;18.20;28.00
19359;DHT22;9815;52.334;20.890;2023-03-14T10:54:13;18.40;28.50
19359;DHT22;9815;52.334;20.890;2023-03-14T10:56:41;18.60;26.90
19359;DHT22;9815;52.334;20.890;2023-03-14T10:59:13;18.60;26.70
19359;DHT22;9815;52.334;20.890;2023-03-14T11:01:50;18.60;26.40
19359;DHT22;9815;52.334;20.890;2023-03-14T11:04:34;18.20;27.40
19359;DHT22;9815;52.334;20.890;2023-03-14T11:07:09;17.60;28.10
19359;DHT22;9815;52.334;20.890;2023-03-14T11:09:44;17.20;29.50
19359;DHT22;9815;52.334;20.890;2023-03-14T11:12:31;16.90;29.90
19359;DHT22;9815;52.334;20.890;2023-03-14T11:15:05;16.60;30.90
19359;DHT22;9815;52.334;20.890;2023-03-14T11:17:44;16.50;31.90
19359;DHT22;9815;52.334;20.890;2023-03-14T11:20:26;16.30;31.70
19359;DHT22;9815;52.334;20.890;2023-03-14T11:23:02;16.20;32.80
19359;DHT22;9815;52.334;20.890;2023-03-14T11:25:38;16.00;32.70
19359;DHT22;9815;52.334;20.890;2023-03-14T11:28:18;15.70;33.50
19359;DHT22;9815;52.334;20.890;2023-03-14T11:30:51;15.40;35.10
19359;DHT22;9815;52.334;20.890;2023-03-14T11:33:25;15.20;36.40
19359;DHT22;9815;52.334;20.890;2023-03-14T11:35:59;15.00;37.30
19359;DHT22;9815;52.334;20.890;2023-03-14T11:38:32;14.90;37.30
19359;DHT22;9815;52.334;20.890;2023-03-14T11:41:02;14.90;38.50
19359;DHT22;9815;52.334;20.890;2023-03-14T11:43:33;15.00;38.70
19359;DHT22;9815;52.334;20.890;2023-03-14T11:46:07;15.40;37.90
19359;DHT22;9815;52.334;20.890;2023-03-14T11:48:43;15.70;35.50
19359;DHT22;9815;52.334;20.890;2023-03-14T11:51:17;15.80;34.80
19359;DHT22;9815;52.334;20.890;2023-03-14T11:53:57;15.90;34.40
19359;DHT22;9815;52.334;20.890;2023-03-14T11:56:31;15.80;34.80
19359;DHT22;9815;52.334;20.890;2023-03-14T11:59:02;15.60;35.20
19359;DHT22;9815;52.334;20.890;2023-03-14T12:01:45;15.30;36.10
19359;DHT22;9815;52.334;20.890;2023-03-14T12:04:29;15.10;37.20
19359;DHT22;9815;52.334;20.890;2023-03-14T12:07:02;15.10;39.10
19359;DHT22;9815;52.334;20.890;2023-03-14T12:09:31;15.10;39.10
19359;DHT22;9815;52.334;20.890;2023-03-14T12:12:01;15.20;40.10
19359;DHT22;9815;52.334;20.890;2023-03-14T12:14:32;15.20;39.20
19359;DHT22;9815;52.334;20.890;2023-03-14T12:17:05;15.30;38.40
19359;DHT22;9815;52.334;20.890;2023-03-14T12:19:37;15.30;39.80
19359;DHT22;9815;52.334;20.890;2023-03-14T12:22:26;15.30;39.10
19359;DHT22;9815;52.334;20.890;2023-03-14T12:24:59;15.20;40.30
19359;DHT22;9815;52.334;20.890;2023-03-14T12:27:49;15.00;42.90
19359;DHT22;9815;52.334;20.890;2023-03-14T12:30:31;14.80;43.80
19359;DHT22;9815;52.334;20.890;2023-03-14T12:33:29;14.70;47.10
19359;DHT22;9815;52.334;20.890;2023-03-14T12:36:01;14.60;47.10
19359;DHT22;9815;52.334;20.890;2023-03-14T12:38:51;14.50;49.60
19359;DHT22;9815;52.334;20.890;2023-03-14T12:41:22;14.30;52.90
19359;DHT22;9815;52.334;20.890;2023-03-14T12:43:51;14.10;59.80
19359;DHT22;9815;52.334;20.890;2023-03-14T12:46:22;13.90;69.40
19359;DHT22;9815;52.334;20.890;2023-03-14T12:48:55;13.70;78.90
19359;DHT22;9815;52.334;20.890;2023-03-14T12:51:34;13.50;89.20
19359;DHT22;9815;52.334;20.890;2023-03-14T12:54:32;13.40;99.90
19359;DHT22;9815;52.334;20.890;2023-03-14T12:57:20;13.00;99.90
19359;DHT22;9815;52.334;20.890;2023-03-14T12:59:55;12.70;99.90
19359;DHT22;9815;52.334;20.890;2023-03-14T13:02:25;12.40;99.90
19359;DHT22;9815;52.334;20.890;2023-03-14T13:05:02;12.20;99.90
19359;DHT22;9815;52.334;20.890;2023-03-14T13:08:03;12.10;99.90
19359;DHT22;9815;52.334;20.890;2023-03-14T13:10:41;11.90;99.90
19359;DHT22;9815;52.334;20.890;2023-03-14T13:13:19;11.70;99.90
19359;DHT22;9815;52.334;20.890;2023-03-14T13:15:49;11.70;99.90
19359;DHT22;9815;52.334;20.890;2023-03-14T13:18:26;11.60;99.90
19359;DHT22;9815;52.334;20.890;2023-03-14T13:20:56;11.60;99.90
19359;DHT22;9815;52.334;20.890;2023-03-14T13:23:29;11.50;99.90
19359;DHT22;9815;52.334;20.890;2023-03-14T13:25:59;11.60;99.90
19359;DHT22;9815;52.334;20.890;2023-03-14T13:28:30;11.50;99.90
19359;DHT22;9815;52.334;20.890;2023-03-14T13:31:00;11.50;99.90
19359;DHT22;9815;52.334;20.890;2023-03-14T13:33:28;11.40;99.90
19359;DHT22;9815;52.334;20.890;2023-03-14T13:35:59;11.30;99.90
19359;DHT22;9815;52.334;20.890;2023-03-14T13:38:32;11.20;99.90
19359;DHT22;9815;52.334;20.890;2023-03-14T13:41:03;11.30;99.90
19359;DHT22;9815;52.334;20.890;2023-03-14T13:43:33;11.30;99.90
19359;DHT22;9815;52.334;20.890;2023-03-14T13:46:03;11.30;99.90
19359;DHT22;9815;52.334;20.890;2023-03-14T13:48:34;11.30;99.90
19359;DHT22;9815;52.334;20.890;2023-03-14T13:51:05;11.30;99.90
19359;DHT22;9815;52.334;20.890;2023-03-14T13:53:44;11.40;99.90
19359;DHT22;9815;52.334;20.890;2023-03-14T13:56:13;11.40;99.90
19359;DHT22;9815;52.334;20.890;2023-03-14T13:58:41;11.30;99.90
19359;DHT22;9815;52.334;20.890;2023-03-14T14:01:16;11.20;99.90
19359;DHT22;9815;52.334;20.890;2023-03-14T14:03:47;11.20;99.90
19359;DHT22;9815;52.334;20.890;2023-03-14T14:06:29;11.10;99.90
19359;DHT22;9815;52.334;20.890;2023-03-14T14:09:00;11.10;99.90
19359;DHT22;9815;52.334;20.890;2023-03-14T14:11:41;11.10;99.90
19359;DHT22;9815;52.334;20.890;2023-03-14T14:14:21;11.00;99.90
19359;DHT22;9815;52.334;20.890;2023-03-14T14:16:52;11.00;99.90
19359;DHT22;9815;52.334;20.890;2023-03-14T14:19:21;10.90;99.90
19359;DHT22;9815;52.334;20.890;2023-03-14T14:21:51;10.80;99.90
19359;DHT22;9815;52.334;20.890;2023-03-14T14:24:22;10.80;99.90
19359;DHT22;9815;52.334;20.890;2023-03-14T14:26:53;10.80;99.90
19359;DHT22;9815;52.334;20.890;2023-03-14T14:29:26;10.80;99.90
19359;DHT22;9815;52.334;20.890;2023-03-14T14:32:02;10.70;99.90
19359;DHT22;9815;52.334;20.890;2023-03-14T14:34:38;10.70;99.90
19359;DHT22;9815;52.334;20.890;2023-03-14T14:37:20;10.70;99.90
19359;DHT22;9815;52.334;20.890;2023-03-14T14:39:55;10.80;99.90
19359;DHT22;9815;52.334;20.890;2023-03-14T14:42:26;10.70;99.90
19359;DHT22;9815;52.334;20.890;2023-03-14T14:44:56;10.60;99.90
19359;DHT22;9815;52.334;20.890;2023-03-14T14:47:27;10.70;99.90
19359;DHT22;9815;52.334;20.890;2023-03-14T14:49:59;10.60;99.90
19359;DHT22;9815;52.334;20.890;2023-03-14T14:52:36;10.60;99.90
19359;DHT22;9815;52.334;20.890;2023-03-14T14:55:16;10.60;99.90
19359;DHT22;9815;52.334;20.890;2023-03-14T14:57:49;10.60;99.90
19359;DHT22;9815;52.334;20.890;2023-03-14T15:00:20;10.60;99.90
19359;DHT22;9815;52.334;20.890;2023-03-14T15:02:50;10.60;99.90
19359;DHT22;9815;52.334;20.890;2023-03-14T15:05:23;10.60;99.90
19359;DHT22;9815;52.334;20.890;2023-03-14T15:07:51;10.60;99.90
19359;DHT22;9815;52.334;20.890;2023-03-14T15:10:22;10.60;99.90
19359;DHT22;9815;52.334;20.890;2023-03-14T15:12:51;10.60;99.90
19359;DHT22;9815;52.334;20.890;2023-03-14T15:15:19;10.60;99.90
19359;DHT22;9815;52.334;20.890;2023-03-14T15:17:47;10.70;99.90
19359;DHT22;9815;52.334;20.890;2023-03-14T15:20:16;10.60;99.90
19359;DHT22;9815;52.334;20.890;2023-03-14T15:22:46;10.70;99.90
19359;DHT22;9815;52.334;20.890;2023-03-14T15:25:15;10.60;99.90
19359;DHT22;9815;52.334;20.890;2023-03-14T15:28:10;10.60;99.90
19359;DHT22;9815;52.334;20.890;2023-03-14T15:30:41;10.50;99.90
19359;DHT22;9815;52.334;20.890;2023-03-14T15:33:09;10.50;99.90
19359;DHT22;9815;52.334;20.890;2023-03-14T15:35:37;10.50;99.90
19359;DHT22;9815;52.334;20.890;2023-03-14T15:38:05;10.50;99.90
19359;DHT22;9815;52.334;20.890;2023-03-14T15:40:33;10.40;99.90
19359;DHT22;9815;52.334;20.890;2023-03-14T15:43:01;10.30;99.90
19359;DHT22;9815;52.334;20.890;2023-03-14T15:45:31;10.40;99.90
19359;DHT22;9815;52.334;20.890;2023-03-14T15:47:59;10.40;99.90
19359;DHT22;9815;52.334;20.890;2023-03-14T15:50:27;10.40;99.90
19359;DHT22;9815;52.334;20.890;2023-03-14T15:52:56;10.30;99.90
19359;DHT22;9815;52.334;20.890;2023-03-14T15:55:24;10.30;99.90
19359;DHT22;9815;52.334;20.890;2023-03-14T15:57:52;10.30;99.90
19359;DHT22;9815;52.334;20.890;2023-03-14T16:00:21;10.30;99.90
19359;DHT22;9815;52.334;20.890;2023-03-14T16:02:52;10.30;99.90
19359;DHT22;9815;52.334;20.890;2023-03-14T16:05:20;10.20;99.90
19359;DHT22;9815;52.334;20.890;2023-03-14T16:07:48;10.20;99.90